Time;durP1;ratioP1;P1;durP2;ratioP2;P2;SDS_P1;SDS_P2;PMS_P1;PMS_P2;Temp;Humidity;BMP_temperature;BMP_pressure;BME280_temperature;BME280_humidity;BME280_pressure;Samples;Min_cycle;Max_cycle;Signal;HPM_P1;HPM_P2
2022/09/15 00:01:06;;;;;;;;;;;14.30;89.90;;;;;;5001716;28;19940;-83
2022/09/15 00:03:32;;;;;;;;;;;14.30;90.00;;;;;;5005077;28;19996;-83
2022/09/15 00:05:58;;;;;;;;;;;14.30;89.80;;;;;;5003649;28;20012;-83
2022/09/15 00:08:24;;;;;;;;;;;14.30;89.90;;;;;;4999954;28;19992;-83
2022/09/15 00:10:51;;;;;;;;;;;14.30;89.70;;;;;;5009312;28;19925;-83
2022/09/15 00:13:17;;;;;;;;;;;14.20;89.80;;;;;;5028010;28;19914;-83
2022/09/15 00:15:43;;;;;;;;;;;14.20;90.00;;;;;;5000346;28;19914;-83
2022/09/15 00:18:08;;;;;;;;;;;14.20;89.80;;;;;;5008778;28;20369;-83
2022/09/15 00:20:34;;;;;;;;;;;14.20;89.80;;;;;;5007221;28;20004;-83
2022/09/15 00:22:59;;;;;;;;;;;14.20;89.90;;;;;;5010773;28;20343;-84
2022/09/15 00:25:24;;;;;;;;;;;14.10;89.90;;;;;;5016721;28;19936;-83
2022/09/15 00:27:50;;;;;;;;;;;14.20;89.80;;;;;;5014602;28;20291;-83
2022/09/15 00:30:15;;;;;;;;;;;14.10;89.70;;;;;;5008062;28;19940;-83
2022/09/15 00:32:41;;;;;;;;;;;14.00;89.90;;;;;;5006481;28;19913;-83
2022/09/15 00:35:06;;;;;;;;;;;14.00;90.10;;;;;;5008326;28;19922;-83
2022/09/15 00:37:32;;;;;;;;;;;14.00;90.10;;;;;;5010811;28;19974;-83
2022/09/15 00:39:58;;;;;;;;;;;14.00;90.10;;;;;;5012956;28;19914;-83
2022/09/15 00:42:23;;;;;;;;;;;13.90;90.10;;;;;;5004514;28;19922;-83
2022/09/15 00:44:56;;;;;;;;;;;13.90;90.20;;;;;;5008667;28;19940;-84
2022/09/15 00:47:24;;;;;;;;;;;13.90;90.10;;;;;;5027261;28;19920;-83
2022/09/15 00:49:53;;;;;;;;;;;14.00;89.50;;;;;;5014637;28;19918;-84
2022/09/15 00:52:22;;;;;;;;;;;14.00;89.40;;;;;;4997482;28;19918;-83
2022/09/15 00:54:53;;;;;;;;;;;14.00;89.80;;;;;;4999213;28;19952;-84
2022/09/15 00:57:42;;;;;;;;;;;13.90;89.70;;;;;;5010273;28;19913;-84
2022/09/15 01:00:10;;;;;;;;;;;13.80;89.90;;;;;;5007504;28;19924;-84
2022/09/15 01:02:36;;;;;;;;;;;13.80;90.00;;;;;;5007159;28;19928;-83
2022/09/15 01:05:04;;;;;;;;;;;13.90;90.10;;;;;;4996070;28;19941;-83
2022/09/15 01:07:31;;;;;;;;;;;13.80;90.00;;;;;;5000978;28;20617;-84
2022/09/15 01:09:58;;;;;;;;;;;13.80;89.90;;;;;;4998586;28;19918;-83
2022/09/15 01:12:24;;;;;;;;;;;13.70;90.10;;;;;;5004844;28;19985;-84
2022/09/15 01:14:50;;;;;;;;;;;13.70;90.40;;;;;;5001140;28;19914;-84
2022/09/15 01:17:34;;;;;;;;;;;13.80;90.20;;;;;;4997920;28;19914;-84
2022/09/15 01:19:59;;;;;;;;;;;13.70;90.40;;;;;;5010468;28;19914;-83
2022/09/15 01:22:28;;;;;;;;;;;13.60;90.50;;;;;;5009886;28;19965;-83
2022/09/15 01:25:08;;;;;;;;;;;13.60;90.60;;;;;;5016165;28;19913;-83
2022/09/15 01:27:54;;;;;;;;;;;13.60;90.50;;;;;;5007666;28;19917;-83
2022/09/15 01:30:20;;;;;;;;;;;13.60;90.60;;;;;;5008154;28;20239;-84
2022/09/15 01:33:03;;;;;;;;;;;13.60;90.30;;;;;;5011968;28;19917;-84
2022/09/15 01:35:38;;;;;;;;;;;13.60;90.50;;;;;;5006249;28;19920;-83
2022/09/15 01:38:19;;;;;;;;;;;13.60;90.40;;;;;;5005111;28;19921;-84
2022/09/15 01:41:04;;;;;;;;;;;13.60;90.30;;;;;;5004197;28;19921;-84
2022/09/15 01:43:31;;;;;;;;;;;13.60;90.30;;;;;;5008417;28;19914;-84
2022/09/15 01:45:57;;;;;;;;;;;13.60;90.50;;;;;;5001853;28;20003;-84
2022/09/15 01:48:24;;;;;;;;;;;13.60;90.60;;;;;;5008848;28;19924;-83
2022/09/15 01:50:53;;;;;;;;;;;13.60;90.50;;;;;;5009925;28;19925;-84
2022/09/15 01:53:19;;;;;;;;;;;13.60;90.70;;;;;;5011149;28;19929;-84
2022/09/15 01:55:47;;;;;;;;;;;13.60;90.50;;;;;;5018485;28;20294;-84
2022/09/15 01:58:13;;;;;;;;;;;13.60;90.80;;;;;;5011220;28;19921;-84
2022/09/15 02:00:42;;;;;;;;;;;13.60;90.60;;;;;;5001080;28;19914;-84
2022/09/15 02:03:24;;;;;;;;;;;13.50;90.60;;;;;;5012633;28;19929;-84
2022/09/15 02:05:51;;;;;;;;;;;13.60;90.60;;;;;;5005123;28;20376;-83
2022/09/15 02:08:23;;;;;;;;;;;13.60;90.60;;;;;;5008763;28;20400;-83
2022/09/15 02:11:07;;;;;;;;;;;13.60;90.70;;;;;;5007939;28;19929;-84
2022/09/15 02:13:41;;;;;;;;;;;13.50;90.70;;;;;;5010391;28;19920;-83
2022/09/15 02:16:12;;;;;;;;;;;13.50;90.80;;;;;;5005522;28;19917;-84
2022/09/15 02:18:53;;;;;;;;;;;13.60;90.80;;;;;;5004179;28;19913;-83
2022/09/15 02:21:22;;;;;;;;;;;13.60;90.60;;;;;;5007432;28;19992;-84
2022/09/15 02:23:52;;;;;;;;;;;13.50;90.60;;;;;;5009206;28;19921;-83
2022/09/15 02:26:19;;;;;;;;;;;13.50;90.70;;;;;;5005001;28;19924;-84
2022/09/15 02:28:46;;;;;;;;;;;13.60;90.50;;;;;;5013593;28;20273;-84
2022/09/15 02:31:13;;;;;;;;;;;13.60;90.40;;;;;;5013588;28;19925;-84
2022/09/15 02:33:41;;;;;;;;;;;13.60;90.20;;;;;;5012286;28;19989;-83
2022/09/15 02:36:09;;;;;;;;;;;13.60;90.30;;;;;;5013996;28;20004;-84
2022/09/15 02:38:37;;;;;;;;;;;13.50;90.50;;;;;;5011740;28;19921;-83
2022/09/15 02:41:04;;;;;;;;;;;13.60;90.60;;;;;;5010117;28;20003;-83
2022/09/15 02:43:30;;;;;;;;;;;13.60;90.50;;;;;;5002562;28;19914;-83
2022/09/15 02:45:56;;;;;;;;;;;13.60;90.70;;;;;;5013462;28;19919;-84
2022/09/15 02:48:21;;;;;;;;;;;13.60;90.60;;;;;;5006173;28;19914;-84
2022/09/15 02:50:47;;;;;;;;;;;13.50;90.40;;;;;;5007375;28;19928;-83
2022/09/15 02:53:12;;;;;;;;;;;13.60;90.60;;;;;;5005612;28;20020;-84
2022/09/15 02:55:38;;;;;;;;;;;13.60;90.30;;;;;;5000110;28;19918;-84
2022/09/15 02:58:04;;;;;;;;;;;13.60;90.40;;;;;;5010626;28;19913;-83
2022/09/15 03:00:29;;;;;;;;;;;13.60;90.30;;;;;;5014329;28;19921;-84
2022/09/15 03:02:55;;;;;;;;;;;13.70;90.20;;;;;;5004108;28;19924;-84
2022/09/15 03:05:25;;;;;;;;;;;13.80;90.10;;;;;;5013657;28;20300;-84
2022/09/15 03:07:51;;;;;;;;;;;13.60;90.20;;;;;;5012913;28;19920;-83
2022/09/15 03:10:16;;;;;;;;;;;13.60;90.30;;;;;;5007372;28;19921;-83
2022/09/15 03:12:43;;;;;;;;;;;13.60;90.30;;;;;;5008097;28;20295;-83
2022/09/15 03:15:09;;;;;;;;;;;13.70;90.10;;;;;;5012120;28;19914;-84
2022/09/15 03:17:35;;;;;;;;;;;13.70;89.80;;;;;;5015230;28;19975;-84
2022/09/15 03:20:01;;;;;;;;;;;13.60;90.00;;;;;;5014530;28;19913;-84
2022/09/15 03:22:27;;;;;;;;;;;13.70;90.10;;;;;;5014004;28;20474;-83
2022/09/15 03:24:52;;;;;;;;;;;13.80;90.00;;;;;;5005610;28;19918;-84
2022/09/15 03:27:17;;;;;;;;;;;13.80;90.00;;;;;;5007538;28;20013;-84
2022/09/15 03:29:43;;;;;;;;;;;13.90;90.20;;;;;;5014179;28;20004;-84
2022/09/15 03:32:08;;;;;;;;;;;14.00;90.10;;;;;;5003720;28;20359;-83
2022/09/15 03:34:35;;;;;;;;;;;14.00;89.90;;;;;;5005513;28;19921;-84
2022/09/15 03:37:00;;;;;;;;;;;14.00;89.90;;;;;;5011914;28;20452;-84
2022/09/15 03:39:26;;;;;;;;;;;14.00;89.90;;;;;;5006537;28;20417;-84
2022/09/15 03:41:51;;;;;;;;;;;14.10;89.70;;;;;;5011037;28;19917;-83
2022/09/15 03:44:16;;;;;;;;;;;14.10;89.80;;;;;;5005816;28;19928;-83
2022/09/15 03:46:42;;;;;;;;;;;14.10;89.80;;;;;;5007823;28;20380;-84
2022/09/15 03:49:08;;;;;;;;;;;14.20;89.80;;;;;;5003386;28;20340;-84
2022/09/15 03:51:33;;;;;;;;;;;14.10;89.80;;;;;;5007424;28;19913;-84
2022/09/15 03:53:58;;;;;;;;;;;14.20;90.00;;;;;;5004289;28;19956;-84
2022/09/15 03:56:33;;;;;;;;;;;14.30;89.80;;;;;;5011724;28;19913;-84
2022/09/15 03:59:00;;;;;;;;;;;14.20;89.90;;;;;;5005120;28;19922;-83
2022/09/15 04:01:26;;;;;;;;;;;14.20;89.90;;;;;;5054123;22;19932;-84
2022/09/15 04:03:51;;;;;;;;;;;14.20;89.80;;;;;;5055353;28;20435;-83
2022/09/15 04:06:18;;;;;;;;;;;14.30;89.90;;;;;;5051772;28;19955;-83
2022/09/15 04:08:52;;;;;;;;;;;14.20;89.80;;;;;;5057810;28;19913;-84
2022/09/15 04:11:19;;;;;;;;;;;14.20;90.10;;;;;;5054947;28;20007;-84
2022/09/15 04:13:44;;;;;;;;;;;14.20;90.10;;;;;;5056530;28;19932;-83
2022/09/15 04:16:12;;;;;;;;;;;14.20;90.20;;;;;;5052257;28;19917;-84
2022/09/15 04:18:37;;;;;;;;;;;14.30;90.10;;;;;;5057773;28;19956;-83
2022/09/15 04:21:04;;;;;;;;;;;14.30;89.90;;;;;;5054493;28;19913;-83
2022/09/15 04:23:30;;;;;;;;;;;14.30;90.00;;;;;;5052837;28;20408;-83
2022/09/15 04:26:06;;;;;;;;;;;14.30;90.00;;;;;;5050417;28;19917;-82
2022/09/15 04:28:33;;;;;;;;;;;14.30;89.90;;;;;;5060065;28;20328;-83
2022/09/15 04:31:06;;;;;;;;;;;14.30;90.00;;;;;;5046624;28;19952;-83
2022/09/15 04:33:32;;;;;;;;;;;14.30;90.20;;;;;;5039157;28;19913;-84
2022/09/15 04:36:01;;;;;;;;;;;14.40;90.10;;;;;;5046869;28;19920;-83
2022/09/15 04:38:27;;;;;;;;;;;14.30;90.00;;;;;;5045516;28;20286;-84
2022/09/15 04:40:52;;;;;;;;;;;14.30;90.00;;;;;;5049158;28;19950;-83
2022/09/15 04:43:18;;;;;;;;;;;14.30;90.30;;;;;;5041151;28;19920;-84
2022/09/15 04:45:43;;;;;;;;;;;14.30;90.20;;;;;;5049402;28;19913;-84
2022/09/15 04:48:08;;;;;;;;;;;14.40;90.10;;;;;;5043030;28;20454;-83
2022/09/15 04:50:34;;;;;;;;;;;14.40;90.10;;;;;;5040340;28;19924;-84
2022/09/15 04:52:59;;;;;;;;;;;14.40;90.10;;;;;;5044753;28;19913;-83
2022/09/15 04:55:26;;;;;;;;;;;14.40;89.90;;;;;;5047054;28;19913;-83
2022/09/15 04:57:51;;;;;;;;;;;14.40;90.00;;;;;;5043045;28;19921;-82
2022/09/15 05:00:16;;;;;;;;;;;14.40;90.10;;;;;;5048501;28;19917;-83
2022/09/15 05:02:42;;;;;;;;;;;14.50;90.10;;;;;;5044598;28;19917;-83
2022/09/15 05:05:08;;;;;;;;;;;14.50;90.00;;;;;;5052696;28;20412;-85
2022/09/15 05:07:33;;;;;;;;;;;14.50;90.10;;;;;;5045398;28;19952;-82
2022/09/15 05:09:59;;;;;;;;;;;14.40;89.90;;;;;;5049075;28;19917;-80
2022/09/15 05:12:24;;;;;;;;;;;14.40;90.00;;;;;;5042431;28;19913;-81
2022/09/15 05:14:49;;;;;;;;;;;14.40;89.90;;;;;;5046296;28;19912;-82
2022/09/15 05:17:15;;;;;;;;;;;14.40;90.00;;;;;;5046426;28;20008;-83
2022/09/15 05:19:40;;;;;;;;;;;14.50;90.10;;;;;;5050318;28;19986;-83
2022/09/15 05:22:06;;;;;;;;;;;14.50;89.90;;;;;;5045664;28;19913;-82
2022/09/15 05:24:32;;;;;;;;;;;14.40;89.90;;;;;;5037379;28;19999;-83
2022/09/15 05:26:58;;;;;;;;;;;14.50;89.60;;;;;;5035119;28;19913;-83
2022/09/15 05:29:24;;;;;;;;;;;14.60;89.50;;;;;;5037377;28;19944;-84
2022/09/15 05:31:49;;;;;;;;;;;14.50;89.60;;;;;;5049195;28;19919;-83
2022/09/15 05:34:14;;;;;;;;;;;14.50;89.50;;;;;;5044696;28;20000;-78
2022/09/15 05:36:40;;;;;;;;;;;14.60;89.20;;;;;;5045649;28;19917;-80
2022/09/15 05:39:05;;;;;;;;;;;14.60;89.10;;;;;;5032209;28;21096;-80
2022/09/15 05:41:34;;;;;;;;;;;14.70;89.10;;;;;;5037837;28;19920;-85
2022/09/15 05:43:59;;;;;;;;;;;14.70;88.70;;;;;;5050460;28;19908;-80
2022/09/15 05:46:26;;;;;;;;;;;14.70;88.90;;;;;;5048920;28;19912;-81
2022/09/15 05:48:53;;;;;;;;;;;14.60;89.20;;;;;;5042236;28;20555;-81
2022/09/15 05:51:19;;;;;;;;;;;14.70;89.20;;;;;;5049255;28;20365;-81
2022/09/15 05:53:44;;;;;;;;;;;14.70;89.30;;;;;;5039893;28;19920;-80
2022/09/15 05:56:11;;;;;;;;;;;14.70;89.40;;;;;;5047636;28;19913;-79
2022/09/15 05:58:40;;;;;;;;;;;14.70;89.30;;;;;;5044124;28;19912;-81
2022/09/15 06:01:06;;;;;;;;;;;14.80;89.00;;;;;;5039865;28;19964;-80
2022/09/15 06:03:32;;;;;;;;;;;14.80;89.00;;;;;;5050841;28;19921;-80
2022/09/15 06:05:59;;;;;;;;;;;14.80;89.00;;;;;;5050703;28;20039;-81
2022/09/15 06:08:25;;;;;;;;;;;14.90;89.10;;;;;;5051884;28;19976;-81
2022/09/15 06:10:50;;;;;;;;;;;15.00;88.90;;;;;;5051460;28;19939;-81
2022/09/15 06:13:15;;;;;;;;;;;15.10;88.40;;;;;;5050023;28;19948;-82
2022/09/15 06:15:41;;;;;;;;;;;15.00;88.20;;;;;;5060250;28;19913;-82
2022/09/15 06:18:06;;;;;;;;;;;15.10;88.50;;;;;;5079327;28;20381;-81
2022/09/15 06:20:33;;;;;;;;;;;15.00;88.70;;;;;;5070299;28;19951;-80
2022/09/15 06:22:59;;;;;;;;;;;15.00;88.70;;;;;;5070481;28;19930;-80
2022/09/15 06:25:24;;;;;;;;;;;15.00;88.80;;;;;;5060666;28;19999;-82
2022/09/15 06:27:50;;;;;;;;;;;15.00;88.70;;;;;;5059923;28;19938;-82
2022/09/15 06:30:16;;;;;;;;;;;15.00;88.50;;;;;;5059684;28;19927;-81
2022/09/15 06:32:42;;;;;;;;;;;15.10;88.50;;;;;;5049244;28;19931;-81
2022/09/15 06:35:07;;;;;;;;;;;15.10;88.80;;;;;;5051006;28;19987;-78
2022/09/15 06:37:33;;;;;;;;;;;15.10;88.60;;;;;;5053466;28;19913;-79
2022/09/15 06:39:59;;;;;;;;;;;15.10;88.90;;;;;;5037721;28;19913;-79
2022/09/15 06:42:25;;;;;;;;;;;15.10;88.60;;;;;;5031098;28;19913;-79
2022/09/15 06:44:50;;;;;;;;;;;15.20;88.10;;;;;;5032073;28;19917;-80
2022/09/15 06:47:16;;;;;;;;;;;15.30;88.10;;;;;;5031975;28;19926;-78
2022/09/15 06:49:41;;;;;;;;;;;15.30;88.20;;;;;;5044950;28;19917;-80
2022/09/15 06:52:07;;;;;;;;;;;15.30;88.50;;;;;;5052242;28;19923;-80
2022/09/15 06:54:33;;;;;;;;;;;15.20;88.60;;;;;;5051820;28;19913;-79
2022/09/15 06:56:59;;;;;;;;;;;15.30;88.30;;;;;;5037486;28;19921;-79
2022/09/15 06:59:24;;;;;;;;;;;15.30;88.40;;;;;;5036199;28;19917;-79
2022/09/15 07:01:53;;;;;;;;;;;15.50;87.80;;;;;;5033849;28;19917;-79
2022/09/15 07:04:19;;;;;;;;;;;15.60;87.20;;;;;;5044486;28;19928;-79
2022/09/15 07:06:44;;;;;;;;;;;15.50;87.60;;;;;;5038848;28;19917;-79
2022/09/15 07:09:10;;;;;;;;;;;15.30;88.00;;;;;;5044396;28;19920;-78
2022/09/15 07:11:35;;;;;;;;;;;15.40;88.00;;;;;;5063823;28;19920;-79
2022/09/15 07:14:01;;;;;;;;;;;15.40;88.20;;;;;;5053373;28;19966;-79
2022/09/15 07:16:26;;;;;;;;;;;15.50;87.70;;;;;;5052340;28;20381;-79
2022/09/15 07:19:00;;;;;;;;;;;15.60;87.70;;;;;;5056825;28;19909;-79
2022/09/15 07:21:26;;;;;;;;;;;15.60;87.80;;;;;;5042088;28;19952;-81
2022/09/15 07:23:51;;;;;;;;;;;15.60;87.90;;;;;;5037818;28;19913;-78
2022/09/15 07:26:35;;;;;;;;;;;15.60;87.50;;;;;;5035862;28;19909;-79
2022/09/15 07:29:02;;;;;;;;;;;15.60;88.00;;;;;;5035419;28;19913;-81
2022/09/15 07:31:28;;;;;;;;;;;15.80;88.00;;;;;;5038829;28;19956;-77
2022/09/15 07:33:54;;;;;;;;;;;15.80;87.50;;;;;;5035159;28;20373;-80
2022/09/15 07:36:20;;;;;;;;;;;15.90;87.10;;;;;;5039963;28;19936;-79
2022/09/15 07:38:47;;;;;;;;;;;15.90;87.00;;;;;;5047117;28;19916;-82
2022/09/15 07:41:14;;;;;;;;;;;15.90;87.10;;;;;;5054574;28;19909;-79
2022/09/15 07:43:43;;;;;;;;;;;16.00;86.90;;;;;;5036834;28;20255;-78
2022/09/15 07:46:09;;;;;;;;;;;16.10;86.40;;;;;;5035486;28;19909;-79
2022/09/15 07:48:34;;;;;;;;;;;16.00;85.60;;;;;;5035129;28;19920;-77
2022/09/15 07:51:00;;;;;;;;;;;16.00;85.90;;;;;;5040445;28;19924;-77
2022/09/15 07:53:28;;;;;;;;;;;16.00;86.30;;;;;;5036892;28;19913;-78
2022/09/15 07:55:54;;;;;;;;;;;16.10;86.20;;;;;;5049356;28;19924;-78
2022/09/15 07:58:20;;;;;;;;;;;16.10;86.10;;;;;;5054840;28;19935;-79
2022/09/15 08:00:46;;;;;;;;;;;16.30;85.40;;;;;;5052349;28;19909;-78
2022/09/15 08:03:12;;;;;;;;;;;16.30;85.20;;;;;;5053129;28;19920;-78
2022/09/15 08:05:37;;;;;;;;;;;16.30;85.10;;;;;;5054006;28;20414;-78
2022/09/15 08:08:03;;;;;;;;;;;16.40;84.60;;;;;;5051284;28;19913;-80
2022/09/15 08:10:28;;;;;;;;;;;16.50;84.00;;;;;;5053070;28;19920;-79
2022/09/15 08:12:54;;;;;;;;;;;16.50;83.70;;;;;;5051310;28;19921;-83
2022/09/15 08:15:19;;;;;;;;;;;16.50;83.80;;;;;;5049018;28;19917;-81
2022/09/15 08:17:45;;;;;;;;;;;16.60;82.90;;;;;;5053059;28;19915;-81
2022/09/15 08:20:11;;;;;;;;;;;16.60;83.30;;;;;;5041149;28;19913;-81
2022/09/15 08:22:38;;;;;;;;;;;16.70;83.20;;;;;;5032722;28;19927;-82
2022/09/15 08:25:04;;;;;;;;;;;16.60;83.00;;;;;;5042685;22;20545;-81
2022/09/15 08:27:29;;;;;;;;;;;16.60;83.10;;;;;;5063077;28;19917;-81
2022/09/15 08:29:55;;;;;;;;;;;16.70;82.80;;;;;;5074319;28;19913;-81
2022/09/15 08:32:20;;;;;;;;;;;16.60;82.30;;;;;;5056324;28;19909;-81
2022/09/15 08:34:46;;;;;;;;;;;16.70;81.80;;;;;;5053328;28;19962;-80
2022/09/15 08:37:11;;;;;;;;;;;16.80;80.50;;;;;;5054126;28;19913;-80
2022/09/15 08:39:37;;;;;;;;;;;17.00;80.70;;;;;;5053913;28;19959;-82
2022/09/15 08:42:02;;;;;;;;;;;17.00;80.20;;;;;;5054085;28;19908;-80
2022/09/15 08:44:39;;;;;;;;;;;17.10;80.00;;;;;;5054375;28;19913;-81
2022/09/15 08:47:23;;;;;;;;;;;17.10;80.40;;;;;;5053913;28;20046;-79
2022/09/15 08:50:09;;;;;;;;;;;17.10;79.90;;;;;;5052284;28;20611;-80
2022/09/15 08:52:39;;;;;;;;;;;17.20;78.60;;;;;;5054016;28;19913;-80
2022/09/15 08:55:10;;;;;;;;;;;17.40;76.10;;;;;;5053761;28;20278;-81
2022/09/15 08:57:35;;;;;;;;;;;17.40;76.70;;;;;;5053969;28;19909;-80
2022/09/15 09:00:01;;;;;;;;;;;17.40;77.50;;;;;;5052578;28;19958;-80
2022/09/15 09:02:36;;;;;;;;;;;17.40;76.90;;;;;;5050856;28;19923;-81
2022/09/15 09:05:09;;;;;;;;;;;17.50;74.60;;;;;;5051822;28;19959;-81
2022/09/15 09:07:58;;;;;;;;;;;17.60;72.00;;;;;;5052916;28;19909;-80
2022/09/15 09:10:34;;;;;;;;;;;17.60;72.00;;;;;;5044769;28;21266;-81
2022/09/15 09:13:17;;;;;;;;;;;17.70;73.10;;;;;;5051333;28;20003;-81
2022/09/15 09:15:52;;;;;;;;;;;17.80;70.90;;;;;;5068469;28;19963;-81
2022/09/15 09:18:26;;;;;;;;;;;17.80;72.40;;;;;;5051710;28;19913;-81
2022/09/15 09:21:21;;;;;;;;;;;17.80;72.40;;;;;;5050318;28;20007;-81
2022/09/15 09:23:49;;;;;;;;;;;17.80;73.30;;;;;;5043698;28;19913;-82
2022/09/15 09:26:14;;;;;;;;;;;17.60;72.30;;;;;;5035749;28;19964;-83
2022/09/15 09:29:00;;;;;;;;;;;17.70;73.60;;;;;;5055540;28;19913;-83
2022/09/15 09:31:26;;;;;;;;;;;17.90;72.10;;;;;;5054213;28;19912;-82
2022/09/15 09:34:13;;;;;;;;;;;18.00;69.10;;;;;;5056026;28;19915;-83
2022/09/15 09:36:39;;;;;;;;;;;17.90;66.90;;;;;;5052256;28;19935;-84
2022/09/15 09:39:05;;;;;;;;;;;17.80;64.60;;;;;;5052611;28;19913;-83
2022/09/15 09:41:35;;;;;;;;;;;17.80;63.70;;;;;;5050759;28;19913;-82
2022/09/15 09:44:05;;;;;;;;;;;17.90;65.00;;;;;;5052282;28;20423;-83
2022/09/15 09:46:31;;;;;;;;;;;17.90;65.10;;;;;;5050594;28;20383;-82
2022/09/15 09:49:09;;;;;;;;;;;17.90;66.00;;;;;;5043944;28;19913;-83
2022/09/15 09:51:36;;;;;;;;;;;18.00;65.70;;;;;;5049769;28;19925;-82
2022/09/15 09:54:05;;;;;;;;;;;18.20;65.70;;;;;;5061084;28;20225;-84
2022/09/15 09:56:30;;;;;;;;;;;18.40;60.50;;;;;;5058628;28;20398;-83
2022/09/15 09:58:56;;;;;;;;;;;18.50;61.60;;;;;;5046273;28;19964;-82
2022/09/15 10:01:23;;;;;;;;;;;18.30;64.00;;;;;;5050845;28;19915;-84
2022/09/15 10:03:49;;;;;;;;;;;18.20;65.20;;;;;;5047550;28;19924;-83
2022/09/15 10:06:15;;;;;;;;;;;18.10;63.80;;;;;;5049854;28;20288;-83
2022/09/15 10:08:57;;;;;;;;;;;18.00;61.80;;;;;;5048153;28;20394;-84
2022/09/15 10:11:40;;;;;;;;;;;17.90;62.70;;;;;;5048610;28;19970;-83
2022/09/15 10:14:15;;;;;;;;;;;18.00;62.30;;;;;;5043958;28;19908;-84
2022/09/15 10:16:40;;;;;;;;;;;18.00;63.90;;;;;;5043423;28;20316;-82
2022/09/15 10:19:10;;;;;;;;;;;18.00;63.70;;;;;;5045818;28;20062;-82
2022/09/15 10:21:37;;;;;;;;;;;18.10;63.30;;;;;;5055324;28;19958;-83
2022/09/15 10:24:22;;;;;;;;;;;18.30;63.10;;;;;;5046734;28;20010;-82
2022/09/15 10:26:47;;;;;;;;;;;18.30;63.20;;;;;;5049554;28;19916;-85
2022/09/15 10:29:16;;;;;;;;;;;18.30;62.50;;;;;;5052374;28;19928;-84
2022/09/15 10:31:43;;;;;;;;;;;18.10;62.10;;;;;;5050412;28;20393;-83
2022/09/15 10:34:24;;;;;;;;;;;18.00;61.80;;;;;;5049290;28;19919;-85
2022/09/15 10:36:51;;;;;;;;;;;17.90;63.40;;;;;;5060729;28;19999;-84
2022/09/15 10:39:24;;;;;;;;;;;17.80;62.40;;;;;;5047216;28;19913;-86
2022/09/15 10:42:03;;;;;;;;;;;17.50;64.90;;;;;;5046754;28;19912;-87
2022/09/15 10:44:47;;;;;;;;;;;17.40;66.20;;;;;;5059217;28;19974;-87
2022/09/15 10:47:19;;;;;;;;;;;17.30;66.00;;;;;;5048025;28;19917;-85
2022/09/15 10:49:58;;;;;;;;;;;17.30;66.70;;;;;;5048412;28;19924;-87
2022/09/15 10:52:34;;;;;;;;;;;17.10;68.70;;;;;;5053458;28;19913;-88
2022/09/15 10:55:23;;;;;;;;;;;17.00;69.70;;;;;;5053428;28;19928;-83
2022/09/15 10:57:54;;;;;;;;;;;16.80;71.50;;;;;;5013715;28;19916;-85
2022/09/15 11:00:24;;;;;;;;;;;16.50;74.90;;;;;;5055566;28;19921;-84
2022/09/15 11:02:59;;;;;;;;;;;16.10;76.50;;;;;;5051105;28;19913;-83
2022/09/15 11:05:31;;;;;;;;;;;16.00;76.90;;;;;;5068629;28;20461;-83
2022/09/15 11:08:03;;;;;;;;;;;15.90;78.60;;;;;;5056288;28;19941;-84
2022/09/15 11:10:35;;;;;;;;;;;15.80;79.60;;;;;;5068677;28;19995;-85
2022/09/15 11:13:15;;;;;;;;;;;15.80;79.50;;;;;;5060344;28;19916;-85
2022/09/15 11:15:44;;;;;;;;;;;15.80;79.60;;;;;;5053386;28;19959;-83
2022/09/15 11:18:28;;;;;;;;;;;15.90;79.70;;;;;;5060749;28;20003;-83
2022/09/15 11:20:54;;;;;;;;;;;16.00;78.40;;;;;;5074320;28;19995;-84
2022/09/15 11:23:23;;;;;;;;;;;16.10;78.30;;;;;;5055482;28;19917;-85
2022/09/15 11:25:51;;;;;;;;;;;16.30;77.90;;;;;;5046212;28;19921;-86
2022/09/15 11:28:40;;;;;;;;;;;16.50;77.70;;;;;;5054884;28;20295;-85
2022/09/15 11:31:12;;;;;;;;;;;16.50;76.60;;;;;;5045132;28;19925;-84
2022/09/15 11:33:48;;;;;;;;;;;16.80;76.30;;;;;;5051745;28;20209;-83
2022/09/15 11:36:16;;;;;;;;;;;16.90;74.50;;;;;;5052318;28;20051;-84
2022/09/15 11:38:54;;;;;;;;;;;17.10;74.10;;;;;;5052375;28;19913;-84
2022/09/15 11:41:32;;;;;;;;;;;17.20;74.30;;;;;;5052089;28;19921;-83
2022/09/15 11:44:00;;;;;;;;;;;17.20;74.00;;;;;;5050785;28;19913;-84
2022/09/15 11:46:43;;;;;;;;;;;17.50;72.70;;;;;;5052352;28;19960;-84
2022/09/15 11:49:17;;;;;;;;;;;17.50;72.80;;;;;;5046576;28;19920;-84
2022/09/15 11:51:45;;;;;;;;;;;17.50;74.30;;;;;;5049304;28;19917;-85
2022/09/15 11:54:16;;;;;;;;;;;17.70;73.70;;;;;;5049330;28;19920;-84
2022/09/15 11:56:43;;;;;;;;;;;17.70;72.30;;;;;;5048450;28;19913;-84
2022/09/15 11:59:09;;;;;;;;;;;17.60;72.30;;;;;;5049970;28;19996;-85
2022/09/15 12:01:37;;;;;;;;;;;17.40;72.80;;;;;;5053922;28;20371;-84
2022/09/15 12:04:07;;;;;;;;;;;17.50;72.70;;;;;;5050779;28;20011;-83
2022/09/15 12:06:36;;;;;;;;;;;17.40;72.60;;;;;;5054663;28;19920;-83
2022/09/15 12:09:03;;;;;;;;;;;17.50;73.00;;;;;;5052073;28;19912;-84
2022/09/15 12:11:29;;;;;;;;;;;17.70;71.90;;;;;;5053806;28;20019;-83
2022/09/15 12:13:56;;;;;;;;;;;17.80;70.00;;;;;;5046922;28;19920;-82
2022/09/15 12:16:22;;;;;;;;;;;17.80;69.50;;;;;;5045896;28;19917;-83
2022/09/15 12:18:51;;;;;;;;;;;17.90;69.30;;;;;;5054087;28;19947;-83
2022/09/15 12:21:35;;;;;;;;;;;18.00;69.70;;;;;;5054263;28;20379;-83
2022/09/15 12:24:09;;;;;;;;;;;18.10;70.60;;;;;;5051309;28;19920;-82
2022/09/15 12:26:34;;;;;;;;;;;18.20;69.30;;;;;;5049587;28;20445;-82
2022/09/15 12:29:01;;;;;;;;;;;18.20;70.00;;;;;;5050299;28;19912;-82
2022/09/15 12:31:27;;;;;;;;;;;18.40;68.60;;;;;;5049652;28;19924;-83
2022/09/15 12:33:58;;;;;;;;;;;18.40;69.10;;;;;;5052525;28;19913;-81
2022/09/15 12:36:36;;;;;;;;;;;18.30;67.30;;;;;;5051904;28;19925;-82
2022/09/15 12:39:02;;;;;;;;;;;18.30;68.00;;;;;;5053617;28;19913;-83
2022/09/15 12:41:28;;;;;;;;;;;18.30;67.80;;;;;;5053502;28;20319;-83
2022/09/15 12:43:56;;;;;;;;;;;18.30;67.20;;;;;;5051134;28;19921;-81
2022/09/15 12:46:22;;;;;;;;;;;18.30;68.00;;;;;;5052049;28;19924;-82
2022/09/15 12:48:48;;;;;;;;;;;18.50;67.70;;;;;;5047232;28;19925;-82
2022/09/15 12:51:21;;;;;;;;;;;18.50;66.90;;;;;;5052222;28;19932;-83
2022/09/15 12:53:58;;;;;;;;;;;18.40;66.40;;;;;;5049407;28;19913;-81
2022/09/15 12:56:24;;;;;;;;;;;18.30;67.70;;;;;;5050063;28;20287;-82
2022/09/15 12:58:51;;;;;;;;;;;18.30;66.60;;;;;;5049168;28;19978;-82
2022/09/15 13:01:25;;;;;;;;;;;18.30;66.40;;;;;;5049878;28;20071;-83
2022/09/15 13:03:53;;;;;;;;;;;18.40;66.10;;;;;;5059445;28;19913;-82
2022/09/15 13:06:20;;;;;;;;;;;18.30;68.00;;;;;;5048827;28;19931;-82
2022/09/15 13:09:02;;;;;;;;;;;18.50;67.90;;;;;;5049970;28;19913;-82
2022/09/15 13:11:35;;;;;;;;;;;18.50;68.40;;;;;;5047676;28;19935;-84
2022/09/15 13:14:07;;;;;;;;;;;18.50;68.40;;;;;;5038564;28;20008;-82
2022/09/15 13:16:32;;;;;;;;;;;18.50;66.90;;;;;;5051503;28;19912;-84
2022/09/15 13:19:12;;;;;;;;;;;18.50;66.40;;;;;;5050464;28;20399;-83
2022/09/15 13:21:38;;;;;;;;;;;18.40;67.30;;;;;;5046633;28;19913;-81
2022/09/15 13:24:06;;;;;;;;;;;18.50;67.00;;;;;;5050326;28;19920;-83
2022/09/15 13:26:33;;;;;;;;;;;18.40;67.20;;;;;;5055182;28;19917;-83
2022/09/15 13:28:59;;;;;;;;;;;18.50;65.60;;;;;;5043866;28;20016;-84
2022/09/15 13:31:31;;;;;;;;;;;18.60;65.10;;;;;;5050834;28;19956;-84
2022/09/15 13:34:14;;;;;;;;;;;18.60;66.50;;;;;;5043765;28;19923;-83
2022/09/15 13:36:51;;;;;;;;;;;18.60;64.40;;;;;;5052342;28;19913;-83
2022/09/15 13:39:34;;;;;;;;;;;18.50;64.70;;;;;;5051295;28;19943;-83
2022/09/15 13:42:05;;;;;;;;;;;18.50;65.40;;;;;;5045357;28;19919;-83
2022/09/15 13:44:49;;;;;;;;;;;18.40;64.80;;;;;;5049881;28;19910;-83
2022/09/15 13:47:30;;;;;;;;;;;18.20;63.80;;;;;;5052322;28;19962;-83
2022/09/15 13:50:11;;;;;;;;;;;18.30;64.10;;;;;;5047674;28;19924;-84
2022/09/15 13:52:42;;;;;;;;;;;18.30;62.80;;;;;;5042812;28;19917;-83
2022/09/15 13:55:16;;;;;;;;;;;18.40;61.90;;;;;;5051351;28;20334;-85
2022/09/15 13:57:43;;;;;;;;;;;18.60;62.70;;;;;;5048613;28;19913;-85
2022/09/15 14:00:19;;;;;;;;;;;18.60;62.60;;;;;;5047965;28;19912;-87
2022/09/15 14:02:47;;;;;;;;;;;18.50;63.00;;;;;;5039133;28;19916;-86
2022/09/15 14:05:13;;;;;;;;;;;18.50;62.80;;;;;;5047101;28;19956;-86
2022/09/15 14:07:38;;;;;;;;;;;18.50;63.10;;;;;;5043288;28;19917;-86
2022/09/15 14:10:05;;;;;;;;;;;18.40;62.50;;;;;;5038039;28;19928;-86
2022/09/15 14:12:34;;;;;;;;;;;18.50;62.80;;;;;;5047926;28;19919;-85
2022/09/15 14:15:00;;;;;;;;;;;18.50;63.80;;;;;;5049807;28;19913;-85
2022/09/15 14:17:27;;;;;;;;;;;18.60;62.90;;;;;;5042729;28;20348;-85
2022/09/15 14:19:54;;;;;;;;;;;18.60;63.10;;;;;;5043176;28;19913;-86
2022/09/15 14:22:19;;;;;;;;;;;18.60;64.70;;;;;;5048245;28;20382;-88
2022/09/15 14:24:46;;;;;;;;;;;18.60;63.40;;;;;;5045648;28;19984;-87
2022/09/15 14:27:11;;;;;;;;;;;18.70;63.40;;;;;;5043006;28;19931;-87